sensor_id;sensor_type;location;lat;lon;timestamp;pressure;altitude;pressure_sealevel;temperature;humidity
18819;BME280;9537;45.594;9.294;2023-02-12T00:00:49;101238.63;;;0.42;60.24
18819;BME280;9537;45.594;9.294;2023-02-12T00:01:51;101241.03;;;0.47;59.59
18819;BME280;9537;45.594;9.294;2023-02-12T00:02:53;101241.72;;;0.50;59.83
18819;BME280;9537;45.594;9.294;2023-02-12T00:03:56;101241.72;;;0.50;59.54
18819;BME280;9537;45.594;9.294;2023-02-12T00:04:58;101251.06;;;0.54;60.02
18819;BME280;9537;45.594;9.294;2023-02-12T00:06:00;101242.28;;;0.57;60.10
18819;BME280;9537;45.594;9.294;2023-02-12T00:07:02;101243.97;;;0.58;60.38
18819;BME280;9537;45.594;9.294;2023-02-12T00:08:04;101240.47;;;0.59;60.00
18819;BME280;9537;45.594;9.294;2023-02-12T00:09:06;101240.41;;;0.60;59.97
18819;BME280;9537;45.594;9.294;2023-02-12T00:10:07;101236.94;;;0.60;60.17
18819;BME280;9537;45.594;9.294;2023-02-12T00:11:11;101239.63;;;0.58;59.43
18819;BME280;9537;45.594;9.294;2023-02-12T00:12:13;101241.44;;;0.56;60.05
18819;BME280;9537;45.594;9.294;2023-02-12T00:13:15;101233.72;;;0.55;60.22
18819;BME280;9537;45.594;9.294;2023-02-12T00:14:16;101235.44;;;0.54;60.12
18819;BME280;9537;45.594;9.294;2023-02-12T00:15:18;101242.50;;;0.52;60.41
18819;BME280;9537;45.594;9.294;2023-02-12T00:16:21;101237.31;;;0.52;60.74
18819;BME280;9537;45.594;9.294;2023-02-12T00:17:23;101241.78;;;0.49;61.18
18819;BME280;9537;45.594;9.294;2023-02-12T00:18:24;101231.38;;;0.49;61.11
18819;BME280;9537;45.594;9.294;2023-02-12T00:19:27;101239.25;;;0.47;61.34
18819;BME280;9537;45.594;9.294;2023-02-12T00:20:29;101237.50;;;0.48;60.96
18819;BME280;9537;45.594;9.294;2023-02-12T00:21:31;101237.59;;;0.46;60.96
18819;BME280;9537;45.594;9.294;2023-02-12T00:22:33;101239.19;;;0.49;60.82
18819;BME280;9537;45.594;9.294;2023-02-12T00:23:34;101233.09;;;0.50;60.81
18819;BME280;9537;45.594;9.294;2023-02-12T00:24:36;101234.75;;;0.51;61.40
18819;BME280;9537;45.594;9.294;2023-02-12T00:25:40;101231.97;;;0.55;60.51
18819;BME280;9537;45.594;9.294;2023-02-12T00:26:42;101235.34;;;0.57;60.53
18819;BME280;9537;45.594;9.294;2023-02-12T00:27:43;101235.25;;;0.59;60.42
18819;BME280;9537;45.594;9.294;2023-02-12T00:28:45;101238.63;;;0.61;60.72
18819;BME280;9537;45.594;9.294;2023-02-12T00:29:46;101237.94;;;0.57;60.54
18819;BME280;9537;45.594;9.294;2023-02-12T00:30:48;101236.09;;;0.59;60.39
18819;BME280;9537;45.594;9.294;2023-02-12T00:31:49;101230.91;;;0.59;60.75
18819;BME280;9537;45.594;9.294;2023-02-12T00:32:51;101231.03;;;0.56;60.34
18819;BME280;9537;45.594;9.294;2023-02-12T00:33:52;101236.19;;;0.58;59.64
18819;BME280;9537;45.594;9.294;2023-02-12T00:34:56;101240.53;;;0.57;59.95
18819;BME280;9537;45.594;9.294;2023-02-12T00:35:57;101239.63;;;0.58;60.44
18819;BME280;9537;45.594;9.294;2023-02-12T00:37:02;101231.13;;;0.55;59.98
18819;BME280;9537;45.594;9.294;2023-02-12T00:38:03;101237.44;;;0.49;60.82
18819;BME280;9537;45.594;9.294;2023-02-12T00:39:05;101228.88;;;0.47;60.25
18819;BME280;9537;45.594;9.294;2023-02-12T00:40:07;101226.31;;;0.45;60.55
18819;BME280;9537;45.594;9.294;2023-02-12T00:41:10;101229.78;;;0.46;60.20
18819;BME280;9537;45.594;9.294;2023-02-12T00:42:11;101227.09;;;0.48;60.98
18819;BME280;9537;45.594;9.294;2023-02-12T00:43:13;101227.03;;;0.49;60.35
18819;BME280;9537;45.594;9.294;2023-02-12T00:44:14;101232.16;;;0.51;60.45
18819;BME280;9537;45.594;9.294;2023-02-12T00:45:16;101225.97;;;0.53;60.05
18819;BME280;9537;45.594;9.294;2023-02-12T00:46:18;101234.63;;;0.54;60.07
18819;BME280;9537;45.594;9.294;2023-02-12T00:47:20;101230.34;;;0.53;60.02
18819;BME280;9537;45.594;9.294;2023-02-12T00:48:22;101231.88;;;0.57;59.91
18819;BME280;9537;45.594;9.294;2023-02-12T00:49:23;101235.34;;;0.57;60.41
18819;BME280;9537;45.594;9.294;2023-02-12T00:50:27;101234.41;;;0.58;60.34
18819;BME280;9537;45.594;9.294;2023-02-12T00:51:28;101226.97;;;0.51;60.64
18819;BME280;9537;45.594;9.294;2023-02-12T00:52:30;101235.31;;;0.38;60.88
18819;BME280;9537;45.594;9.294;2023-02-12T00:53:31;101231.66;;;0.42;61.37
18819;BME280;9537;45.594;9.294;2023-02-12T00:54:33;101230.75;;;0.43;61.14
18819;BME280;9537;45.594;9.294;2023-02-12T00:55:36;101224.59;;;0.46;61.12
18819;BME280;9537;45.594;9.294;2023-02-12T00:56:37;101236.81;;;0.44;60.93
18819;BME280;9537;45.594;9.294;2023-02-12T00:57:39;101243.53;;;0.48;60.77
18819;BME280;9537;45.594;9.294;2023-02-12T00:58:40;101241.78;;;0.49;60.63
18819;BME280;9537;45.594;9.294;2023-02-12T00:59:42;101234.91;;;0.48;61.13
18819;BME280;9537;45.594;9.294;2023-02-12T01:00:43;101238.41;;;0.47;60.84
18819;BME280;9537;45.594;9.294;2023-02-12T01:01:45;101237.00;;;0.39;60.32
18819;BME280;9537;45.594;9.294;2023-02-12T01:02:46;101234.47;;;0.38;60.76
18819;BME280;9537;45.594;9.294;2023-02-12T01:03:48;101234.63;;;0.35;60.60
18819;BME280;9537;45.594;9.294;2023-02-12T01:04:50;101226.09;;;0.31;60.96
18819;BME280;9537;45.594;9.294;2023-02-12T01:05:53;101227.03;;;0.30;61.54
18819;BME280;9537;45.594;9.294;2023-02-12T01:06:54;101228.69;;;0.31;60.91
18819;BME280;9537;45.594;9.294;2023-02-12T01:07:56;101225.25;;;0.31;61.55
18819;BME280;9537;45.594;9.294;2023-02-12T01:08:57;101234.69;;;0.33;60.86
18819;BME280;9537;45.594;9.294;2023-02-12T01:09:59;101231.28;;;0.31;60.84
18819;BME280;9537;45.594;9.294;2023-02-12T01:11:02;101232.06;;;0.33;60.76
18819;BME280;9537;45.594;9.294;2023-02-12T01:12:06;101234.53;;;0.36;61.11
18819;BME280;9537;45.594;9.294;2023-02-12T01:13:09;101238.06;;;0.35;61.82
18819;BME280;9537;45.594;9.294;2023-02-12T01:14:12;101240.66;;;0.35;61.61
18819;BME280;9537;45.594;9.294;2023-02-12T01:15:16;101235.50;;;0.34;61.43
18819;BME280;9537;45.594;9.294;2023-02-12T01:16:19;101242.41;;;0.35;61.03
18819;BME280;9537;45.594;9.294;2023-02-12T01:17:22;101236.34;;;0.34;61.07
18819;BME280;9537;45.594;9.294;2023-02-12T01:18:23;101227.09;;;0.29;61.93
18819;BME280;9537;45.594;9.294;2023-02-12T01:19:26;101234.13;;;0.27;61.61
18819;BME280;9537;45.594;9.294;2023-02-12T01:20:27;101246.59;;;0.18;62.79
18819;BME280;9537;45.594;9.294;2023-02-12T01:21:32;101232.63;;;0.21;62.81
18819;BME280;9537;45.594;9.294;2023-02-12T01:22:34;101230.09;;;0.19;62.88
18819;BME280;9537;45.594;9.294;2023-02-12T01:23:36;101229.38;;;0.16;62.86
18819;BME280;9537;45.594;9.294;2023-02-12T01:24:38;101229.53;;;0.13;63.00
18819;BME280;9537;45.594;9.294;2023-02-12T01:25:40;101239.13;;;0.11;63.31
18819;BME280;9537;45.594;9.294;2023-02-12T01:26:41;101242.69;;;0.08;63.34
18819;BME280;9537;45.594;9.294;2023-02-12T01:27:43;101227.91;;;0.10;63.16
18819;BME280;9537;45.594;9.294;2023-02-12T01:28:48;101226.22;;;0.09;62.96
18819;BME280;9537;45.594;9.294;2023-02-12T01:29:50;101231.16;;;0.15;62.34
18819;BME280;9537;45.594;9.294;2023-02-12T01:30:51;101228.53;;;0.15;62.35
18819;BME280;9537;45.594;9.294;2023-02-12T01:31:53;101231.97;;;0.16;62.71
18819;BME280;9537;45.594;9.294;2023-02-12T01:32:54;101231.94;;;0.17;62.16
18819;BME280;9537;45.594;9.294;2023-02-12T01:33:57;101232.69;;;0.19;62.38
18819;BME280;9537;45.594;9.294;2023-02-12T01:34:58;101225.63;;;0.23;61.85
18819;BME280;9537;45.594;9.294;2023-02-12T01:36:00;101232.34;;;0.27;61.75
18819;BME280;9537;45.594;9.294;2023-02-12T01:37:03;101236.63;;;0.28;61.57
18819;BME280;9537;45.594;9.294;2023-02-12T01:38:05;101232.34;;;0.27;62.20
18819;BME280;9537;45.594;9.294;2023-02-12T01:39:06;101228.91;;;0.27;62.54
18819;BME280;9537;45.594;9.294;2023-02-12T01:40:10;101223.72;;;0.27;62.29
18819;BME280;9537;45.594;9.294;2023-02-12T01:41:16;101220.28;;;0.26;62.32
18819;BME280;9537;45.594;9.294;2023-02-12T01:42:19;101229.69;;;0.29;61.98
18819;BME280;9537;45.594;9.294;2023-02-12T01:43:20;101223.06;;;0.21;62.48
18819;BME280;9537;45.594;9.294;2023-02-12T01:44:23;101222.00;;;0.26;61.97
18819;BME280;9537;45.594;9.294;2023-02-12T01:45:44;101217.03;;;0.21;62.83
18819;BME280;9537;45.594;9.294;2023-02-12T01:46:47;101220.44;;;0.23;62.93
18819;BME280;9537;45.594;9.294;2023-02-12T01:47:49;101215.28;;;0.21;62.92
18819;BME280;9537;45.594;9.294;2023-02-12T01:48:50;101220.34;;;0.25;62.35
18819;BME280;9537;45.594;9.294;2023-02-12T01:49:53;101214.31;;;0.24;63.06
18819;BME280;9537;45.594;9.294;2023-02-12T01:50:54;101215.13;;;0.25;62.96
18819;BME280;9537;45.594;9.294;2023-02-12T01:52:00;101208.97;;;0.27;63.16
18819;BME280;9537;45.594;9.294;2023-02-12T01:53:04;101212.50;;;0.26;62.92
18819;BME280;9537;45.594;9.294;2023-02-12T01:54:07;101218.38;;;0.30;62.72
18819;BME280;9537;45.594;9.294;2023-02-12T01:55:10;101216.63;;;0.30;63.16
18819;BME280;9537;45.594;9.294;2023-02-12T01:56:13;101215.78;;;0.30;63.45
18819;BME280;9537;45.594;9.294;2023-02-12T01:57:15;101220.06;;;0.31;63.20
18819;BME280;9537;45.594;9.294;2023-02-12T01:58:18;101219.16;;;0.32;63.65
18819;BME280;9537;45.594;9.294;2023-02-12T01:59:20;101213.88;;;0.33;63.27
18819;BME280;9537;45.594;9.294;2023-02-12T02:00:23;101208.53;;;0.36;62.97
18819;BME280;9537;45.594;9.294;2023-02-12T02:01:27;101204.28;;;0.35;63.16
18819;BME280;9537;45.594;9.294;2023-02-12T02:02:30;101203.50;;;0.33;62.55
18819;BME280;9537;45.594;9.294;2023-02-12T02:03:33;101198.34;;;0.13;63.64
18819;BME280;9537;45.594;9.294;2023-02-12T02:04:40;101196.72;;;0.10;63.91
18819;BME280;9537;45.594;9.294;2023-02-12T02:05:46;101191.34;;;0.15;63.48
18819;BME280;9537;45.594;9.294;2023-02-12T02:06:54;101188.75;;;0.15;63.69
18819;BME280;9537;45.594;9.294;2023-02-12T02:07:56;101191.63;;;0.09;63.93
18819;BME280;9537;45.594;9.294;2023-02-12T02:09:00;101187.25;;;0.09;63.54
18819;BME280;9537;45.594;9.294;2023-02-12T02:10:02;101179.50;;;0.08;63.59
18819;BME280;9537;45.594;9.294;2023-02-12T02:11:04;101189.00;;;0.09;64.20
18819;BME280;9537;45.594;9.294;2023-02-12T02:12:26;101186.34;;;0.10;64.14
18819;BME280;9537;45.594;9.294;2023-02-12T02:13:45;101188.09;;;0.10;63.92
18819;BME280;9537;45.594;9.294;2023-02-12T02:15:06;101192.31;;;0.12;64.21
18819;BME280;9537;45.594;9.294;2023-02-12T02:16:14;101195.88;;;0.10;63.97
18819;BME280;9537;45.594;9.294;2023-02-12T02:17:36;101193.19;;;0.11;64.02
18819;BME280;9537;45.594;9.294;2023-02-12T02:18:43;101195.81;;;0.11;64.27
18819;BME280;9537;45.594;9.294;2023-02-12T02:20:13;101199.41;;;0.09;64.15
18819;BME280;9537;45.594;9.294;2023-02-12T02:21:39;101195.03;;;0.09;63.67
18819;BME280;9537;45.594;9.294;2023-02-12T02:22:53;101195.88;;;0.10;64.37
18819;BME280;9537;45.594;9.294;2023-02-12T02:26:11;101193.44;;;0.07;64.20
18819;BME280;9537;45.594;9.294;2023-02-12T02:27:23;101195.09;;;0.08;64.67
18819;BME280;9537;45.594;9.294;2023-02-12T02:28:44;101189.84;;;0.09;64.72
18819;BME280;9537;45.594;9.294;2023-02-12T02:30:21;101177.63;;;0.11;64.34
18819;BME280;9537;45.594;9.294;2023-02-12T02:31:31;101187.81;;;0.16;64.66
18819;BME280;9537;45.594;9.294;2023-02-12T02:32:41;101177.28;;;0.19;64.29
18819;BME280;9537;45.594;9.294;2023-02-12T02:33:52;101182.41;;;0.20;64.46
18819;BME280;9537;45.594;9.294;2023-02-12T02:34:59;101167.22;;;0.11;64.46
18819;BME280;9537;45.594;9.294;2023-02-12T02:36:16;101167.22;;;0.11;64.32
18819;BME280;9537;45.594;9.294;2023-02-12T02:37:25;101173.44;;;0.09;64.59
18819;BME280;9537;45.594;9.294;2023-02-12T02:38:32;101172.41;;;0.11;64.40
18819;BME280;9537;45.594;9.294;2023-02-12T02:39:38;101176.59;;;0.15;64.43
18819;BME280;9537;45.594;9.294;2023-02-12T02:40:49;101170.75;;;0.10;64.09
18819;BME280;9537;45.594;9.294;2023-02-12T02:41:56;101169.75;;;0.13;64.53
18819;BME280;9537;45.594;9.294;2023-02-12T02:43:02;101160.44;;;0.09;64.55
18819;BME280;9537;45.594;9.294;2023-02-12T02:44:09;101167.44;;;0.07;64.63
18819;BME280;9537;45.594;9.294;2023-02-12T02:45:18;101168.34;;;0.06;64.00
18819;BME280;9537;45.594;9.294;2023-02-12T02:46:26;101168.28;;;0.07;64.46
18819;BME280;9537;45.594;9.294;2023-02-12T02:47:32;101166.75;;;0.03;64.09
18819;BME280;9537;45.594;9.294;2023-02-12T02:48:43;101163.22;;;0.04;64.15
18819;BME280;9537;45.594;9.294;2023-02-12T02:49:49;101166.75;;;0.03;64.70
18819;BME280;9537;45.594;9.294;2023-02-12T02:50:56;101166.66;;;0.05;64.06
18819;BME280;9537;45.594;9.294;2023-02-12T02:52:02;101164.06;;;0.05;64.98
18819;BME280;9537;45.594;9.294;2023-02-12T02:53:09;101159.84;;;0.02;64.93
18819;BME280;9537;45.594;9.294;2023-02-12T02:54:15;101161.47;;;0.05;64.19
18819;BME280;9537;45.594;9.294;2023-02-12T02:55:21;101158.94;;;0.03;64.41
18819;BME280;9537;45.594;9.294;2023-02-12T02:56:24;101155.47;;;0.03;64.78
18819;BME280;9537;45.594;9.294;2023-02-12T02:57:30;101157.34;;;0.01;64.24
18819;BME280;9537;45.594;9.294;2023-02-12T02:58:38;101149.03;;;-0.08;64.25
18819;BME280;9537;45.594;9.294;2023-02-12T02:59:44;101147.28;;;-0.07;64.37
18819;BME280;9537;45.594;9.294;2023-02-12T03:00:54;101152.31;;;-0.04;64.12
18819;BME280;9537;45.594;9.294;2023-02-12T03:02:00;101133.50;;;-0.09;64.21
18819;BME280;9537;45.594;9.294;2023-02-12T03:03:08;101148.25;;;-0.10;64.20
18819;BME280;9537;45.594;9.294;2023-02-12T03:04:16;101138.84;;;-0.12;65.30
18819;BME280;9537;45.594;9.294;2023-02-12T03:05:22;101151.91;;;-0.14;65.29
18819;BME280;9537;45.594;9.294;2023-02-12T03:06:29;101139.75;;;-0.13;64.88
18819;BME280;9537;45.594;9.294;2023-02-12T03:07:34;101141.66;;;-0.17;65.22
18819;BME280;9537;45.594;9.294;2023-02-12T03:08:41;101140.78;;;-0.17;65.17
18819;BME280;9537;45.594;9.294;2023-02-12T03:09:46;101141.66;;;-0.17;65.04
18819;BME280;9537;45.594;9.294;2023-02-12T03:10:52;101143.47;;;-0.19;65.21
18819;BME280;9537;45.594;9.294;2023-02-12T03:11:58;101137.56;;;-0.22;64.75
18819;BME280;9537;45.594;9.294;2023-02-12T03:13:06;101134.25;;;-0.26;65.10
18819;BME280;9537;45.594;9.294;2023-02-12T03:14:14;101142.97;;;-0.27;65.18
18819;BME280;9537;45.594;9.294;2023-02-12T03:15:20;101134.19;;;-0.25;65.67
18819;BME280;9537;45.594;9.294;2023-02-12T03:16:27;101135.03;;;-0.24;64.92
18819;BME280;9537;45.594;9.294;2023-02-12T03:17:34;101144.59;;;-0.25;65.46
18819;BME280;9537;45.594;9.294;2023-02-12T03:18:41;101141.91;;;-0.23;64.85
18819;BME280;9537;45.594;9.294;2023-02-12T03:19:47;101143.75;;;-0.25;65.19
18819;BME280;9537;45.594;9.294;2023-02-12T03:20:56;101142.81;;;-0.24;65.59
18819;BME280;9537;45.594;9.294;2023-02-12T03:22:01;101139.66;;;-0.31;65.27
18819;BME280;9537;45.594;9.294;2023-02-12T03:23:09;101142.97;;;-0.27;65.52
18819;BME280;9537;45.594;9.294;2023-02-12T03:24:14;101144.84;;;-0.31;65.38
18819;BME280;9537;45.594;9.294;2023-02-12T03:25:20;101156.78;;;-0.27;65.14
18819;BME280;9537;45.594;9.294;2023-02-12T03:26:28;101155.94;;;-0.27;65.39
18819;BME280;9537;45.594;9.294;2023-02-12T03:27:37;101154.13;;;-0.25;65.66
18819;BME280;9537;45.594;9.294;2023-02-12T03:28:40;101151.66;;;-0.28;65.61
18819;BME280;9537;45.594;9.294;2023-02-12T03:29:42;101157.63;;;-0.26;65.31
18819;BME280;9537;45.594;9.294;2023-02-12T03:30:48;101150.63;;;-0.24;65.73
18819;BME280;9537;45.594;9.294;2023-02-12T03:32:02;101148.94;;;-0.25;65.82
18819;BME280;9537;45.594;9.294;2023-02-12T03:33:11;101154.25;;;-0.28;65.89
18819;BME280;9537;45.594;9.294;2023-02-12T03:34:24;101156.66;;;-0.24;65.56
18819;BME280;9537;45.594;9.294;2023-02-12T03:35:31;101153.22;;;-0.24;66.28
18819;BME280;9537;45.594;9.294;2023-02-12T03:36:39;101153.22;;;-0.24;65.79
18819;BME280;9537;45.594;9.294;2023-02-12T03:37:50;101151.44;;;-0.24;66.22
18819;BME280;9537;45.594;9.294;2023-02-12T03:38:56;101156.00;;;-0.29;66.25
18819;BME280;9537;45.594;9.294;2023-02-12T03:40:10;101153.66;;;-0.35;66.98
18819;BME280;9537;45.594;9.294;2023-02-12T03:41:21;101159.13;;;-0.41;67.00
18819;BME280;9537;45.594;9.294;2023-02-12T03:42:33;101164.19;;;-0.38;66.69
18819;BME280;9537;45.594;9.294;2023-02-12T03:43:43;101154.16;;;-0.46;67.13
18819;BME280;9537;45.594;9.294;2023-02-12T03:44:52;101160.50;;;-0.53;66.90
18819;BME280;9537;45.594;9.294;2023-02-12T03:46:00;101148.56;;;-0.57;67.23
18819;BME280;9537;45.594;9.294;2023-02-12T03:47:12;101144.78;;;-0.50;66.79
18819;BME280;9537;45.594;9.294;2023-02-12T03:48:21;101142.19;;;-0.50;66.76
18819;BME280;9537;45.594;9.294;2023-02-12T03:49:26;101145.63;;;-0.49;67.24
18819;BME280;9537;45.594;9.294;2023-02-12T03:50:37;101150.13;;;-0.53;66.66
18819;BME280;9537;45.594;9.294;2023-02-12T03:51:44;101151.03;;;-0.54;67.16
18819;BME280;9537;45.594;9.294;2023-02-12T03:52:46;101150.13;;;-0.53;67.20
18819;BME280;9537;45.594;9.294;2023-02-12T03:53:49;101153.63;;;-0.54;67.08
18819;BME280;9537;45.594;9.294;2023-02-12T03:54:52;101154.47;;;-0.53;67.48
18819;BME280;9537;45.594;9.294;2023-02-12T03:55:56;101156.22;;;-0.54;67.71
18819;BME280;9537;45.594;9.294;2023-02-12T03:57:04;101153.53;;;-0.52;67.13
18819;BME280;9537;45.594;9.294;2023-02-12T03:58:08;101161.41;;;-0.54;67.67
18819;BME280;9537;45.594;9.294;2023-02-12T03:59:11;101157.06;;;-0.53;67.16
18819;BME280;9537;45.594;9.294;2023-02-12T04:00:15;101156.94;;;-0.50;67.06
18819;BME280;9537;45.594;9.294;2023-02-12T04:01:17;101164.66;;;-0.49;67.53
18819;BME280;9537;45.594;9.294;2023-02-12T04:02:20;101164.66;;;-0.49;67.08
18819;BME280;9537;45.594;9.294;2023-02-12T04:03:23;101161.28;;;-0.51;67.44
18819;BME280;9537;45.594;9.294;2023-02-12T04:04:25;101156.81;;;-0.47;67.45
18819;BME280;9537;45.594;9.294;2023-02-12T04:05:27;101152.56;;;-0.50;67.47
18819;BME280;9537;45.594;9.294;2023-02-12T04:06:28;101154.72;;;-0.59;67.77
18819;BME280;9537;45.594;9.294;2023-02-12T04:07:31;101156.63;;;-0.63;67.80
18819;BME280;9537;45.594;9.294;2023-02-12T04:08:32;101148.09;;;-0.66;67.98
18819;BME280;9537;45.594;9.294;2023-02-12T04:09:34;101149.06;;;-0.69;67.97
18819;BME280;9537;45.594;9.294;2023-02-12T04:10:45;101147.53;;;-0.73;68.02
18819;BME280;9537;45.594;9.294;2023-02-12T04:12:05;101153.38;;;-0.68;68.00
18819;BME280;9537;45.594;9.294;2023-02-12T04:13:15;101154.78;;;-0.61;68.13
18819;BME280;9537;45.594;9.294;2023-02-12T04:14:26;101154.66;;;-0.58;67.91
18819;BME280;9537;45.594;9.294;2023-02-12T04:15:41;101153.91;;;-0.60;67.53
18819;BME280;9537;45.594;9.294;2023-02-12T04:16:50;101152.91;;;-0.57;66.85
18819;BME280;9537;45.594;9.294;2023-02-12T04:18:02;101146.88;;;-0.58;67.02
18819;BME280;9537;45.594;9.294;2023-02-12T04:19:05;101149.41;;;-0.56;67.13
18819;BME280;9537;45.594;9.294;2023-02-12T04:20:15;101154.03;;;-0.63;67.42
18819;BME280;9537;45.594;9.294;2023-02-12T04:21:29;101145.59;;;-0.68;67.32
18819;BME280;9537;45.594;9.294;2023-02-12T04:22:45;101145.50;;;-0.66;67.47
18819;BME280;9537;45.594;9.294;2023-02-12T04:24:01;101158.47;;;-0.66;67.54
18819;BME280;9537;45.594;9.294;2023-02-12T04:25:15;101146.59;;;-0.72;67.84
18819;BME280;9537;45.594;9.294;2023-02-12T04:26:23;101145.22;;;-0.81;67.96
18819;BME280;9537;45.594;9.294;2023-02-12T04:27:34;101152.75;;;-0.75;68.24
18819;BME280;9537;45.594;9.294;2023-02-12T04:28:44;101160.53;;;-0.75;68.35
18819;BME280;9537;45.594;9.294;2023-02-12T04:29:52;101147.38;;;-0.70;68.23
18819;BME280;9537;45.594;9.294;2023-02-12T04:30:57;101151.63;;;-0.68;68.26
18819;BME280;9537;45.594;9.294;2023-02-12T04:32:04;101150.66;;;-0.65;68.27
18819;BME280;9537;45.594;9.294;2023-02-12T04:33:10;101151.47;;;-0.64;68.08
18819;BME280;9537;45.594;9.294;2023-02-12T04:34:20;101157.50;;;-0.64;68.04
18819;BME280;9537;45.594;9.294;2023-02-12T04:35:26;101156.50;;;-0.60;67.66
18819;BME280;9537;45.594;9.294;2023-02-12T04:36:33;101157.31;;;-0.59;67.83
18819;BME280;9537;45.594;9.294;2023-02-12T04:37:38;101158.09;;;-0.57;67.68
18819;BME280;9537;45.594;9.294;2023-02-12T04:38:45;101160.69;;;-0.57;67.30
18819;BME280;9537;45.594;9.294;2023-02-12T04:39:49;101162.44;;;-0.58;67.83
18819;BME280;9537;45.594;9.294;2023-02-12T04:40:51;101162.38;;;-0.56;67.55
18819;BME280;9537;45.594;9.294;2023-02-12T04:41:53;101166.53;;;-0.52;68.13
18819;BME280;9537;45.594;9.294;2023-02-12T04:42:57;101163.16;;;-0.54;67.37
18819;BME280;9537;45.594;9.294;2023-02-12T04:44:16;101173.44;;;-0.51;67.78
18819;BME280;9537;45.594;9.294;2023-02-12T04:45:21;101175.94;;;-0.50;67.64
18819;BME280;9537;45.594;9.294;2023-02-12T04:46:24;101168.09;;;-0.48;67.77
18819;BME280;9537;45.594;9.294;2023-02-12T04:47:26;101159.47;;;-0.49;68.25
18819;BME280;9537;45.594;9.294;2023-02-12T04:48:29;101171.84;;;-0.55;68.27
18819;BME280;9537;45.594;9.294;2023-02-12T04:49:30;101164.31;;;-0.61;67.58
18819;BME280;9537;45.594;9.294;2023-02-12T04:50:38;101159.25;;;-0.64;68.29
18819;BME280;9537;45.594;9.294;2023-02-12T04:51:39;101160.06;;;-0.62;67.99
18819;BME280;9537;45.594;9.294;2023-02-12T04:52:41;101164.47;;;-0.64;68.21
18819;BME280;9537;45.594;9.294;2023-02-12T04:53:42;101159.31;;;-0.66;67.91
18819;BME280;9537;45.594;9.294;2023-02-12T04:54:45;101159.56;;;-0.72;68.03
18819;BME280;9537;45.594;9.294;2023-02-12T04:55:46;101160.63;;;-0.76;68.36
18819;BME280;9537;45.594;9.294;2023-02-12T04:56:50;101160.53;;;-0.75;68.07
18819;BME280;9537;45.594;9.294;2023-02-12T04:57:51;101164.06;;;-0.76;67.82
18819;BME280;9537;45.594;9.294;2023-02-12T04:58:53;101158.75;;;-0.73;67.54
18819;BME280;9537;45.594;9.294;2023-02-12T04:59:57;101146.47;;;-0.69;67.56
18819;BME280;9537;45.594;9.294;2023-02-12T05:00:59;101155.97;;;-0.68;67.18
18819;BME280;9537;45.594;9.294;2023-02-12T05:02:01;101150.91;;;-0.71;67.57
18819;BME280;9537;45.594;9.294;2023-02-12T05:03:03;101156.09;;;-0.71;67.66
18819;BME280;9537;45.594;9.294;2023-02-12T05:04:06;101156.94;;;-0.71;67.71
18819;BME280;9537;45.594;9.294;2023-02-12T05:05:08;101151.66;;;-0.69;67.98
18819;BME280;9537;45.594;9.294;2023-02-12T05:06:10;101151.66;;;-0.69;68.09
18819;BME280;9537;45.594;9.294;2023-02-12T05:07:11;101154.25;;;-0.69;68.38
18819;BME280;9537;45.594;9.294;2023-02-12T05:08:13;101161.16;;;-0.68;68.25
18819;BME280;9537;45.594;9.294;2023-02-12T05:09:16;101154.13;;;-0.66;68.44
18819;BME280;9537;45.594;9.294;2023-02-12T05:10:18;101151.53;;;-0.66;67.78
18819;BME280;9537;45.594;9.294;2023-02-12T05:11:20;101155.97;;;-0.68;67.57
18819;BME280;9537;45.594;9.294;2023-02-12T05:12:20;101156.09;;;-0.71;68.20
18819;BME280;9537;45.594;9.294;2023-02-12T05:13:22;101150.00;;;-0.70;68.45
18819;BME280;9537;45.594;9.294;2023-02-12T05:14:24;101149.00;;;-0.68;68.49
18819;BME280;9537;45.594;9.294;2023-02-12T05:15:26;101155.84;;;-0.65;68.18
18819;BME280;9537;45.594;9.294;2023-02-12T05:16:27;101150.56;;;-0.63;67.72
18819;BME280;9537;45.594;9.294;2023-02-12T05:17:29;101152.41;;;-0.65;67.93
18819;BME280;9537;45.594;9.294;2023-02-12T05:18:31;101148.94;;;-0.66;67.60
18819;BME280;9537;45.594;9.294;2023-02-12T05:19:35;101148.22;;;-0.70;67.92
18819;BME280;9537;45.594;9.294;2023-02-12T05:20:36;101143.31;;;-0.76;68.14
18819;BME280;9537;45.594;9.294;2023-02-12T05:21:38;101147.66;;;-0.76;67.89
18819;BME280;9537;45.594;9.294;2023-02-12T05:22:39;101148.88;;;-0.85;68.27
18819;BME280;9537;45.594;9.294;2023-02-12T05:23:41;101149.00;;;-0.88;68.35
18819;BME280;9537;45.594;9.294;2023-02-12T05:24:42;101148.22;;;-0.90;68.41
18819;BME280;9537;45.594;9.294;2023-02-12T05:25:44;101158.41;;;-0.85;68.19
18819;BME280;9537;45.594;9.294;2023-02-12T05:26:47;101150.63;;;-0.85;68.55
18819;BME280;9537;45.594;9.294;2023-02-12T05:27:49;101146.47;;;-0.89;68.35
18819;BME280;9537;45.594;9.294;2023-02-12T05:28:50;101146.41;;;-0.88;68.47
18819;BME280;9537;45.594;9.294;2023-02-12T05:29:52;101142.06;;;-0.87;68.89
18819;BME280;9537;45.594;9.294;2023-02-12T05:30:53;101142.97;;;-0.88;68.58
18819;BME280;9537;45.594;9.294;2023-02-12T05:31:55;101146.41;;;-0.88;68.82
18819;BME280;9537;45.594;9.294;2023-02-12T05:32:56;101139.38;;;-0.86;68.70
18819;BME280;9537;45.594;9.294;2023-02-12T05:33:58;101142.78;;;-0.84;68.78
18819;BME280;9537;45.594;9.294;2023-02-12T05:35:01;101142.78;;;-0.84;68.77
18819;BME280;9537;45.594;9.294;2023-02-12T05:36:04;101137.78;;;-0.88;68.84
18819;BME280;9537;45.594;9.294;2023-02-12T05:37:05;101133.50;;;-0.89;68.56
18819;BME280;9537;45.594;9.294;2023-02-12T05:38:07;101145.69;;;-0.92;68.58
18819;BME280;9537;45.594;9.294;2023-02-12T05:39:09;101138.81;;;-0.93;68.54
18819;BME280;9537;45.594;9.294;2023-02-12T05:40:12;101135.25;;;-0.90;69.07
18819;BME280;9537;45.594;9.294;2023-02-12T05:41:14;101128.44;;;-0.93;68.93
18819;BME280;9537;45.594;9.294;2023-02-12T05:42:17;101132.72;;;-0.92;68.86
18819;BME280;9537;45.594;9.294;2023-02-12T05:43:18;101129.22;;;-0.91;68.78
18819;BME280;9537;45.594;9.294;2023-02-12T05:44:20;101125.66;;;-0.88;68.71
18819;BME280;9537;45.594;9.294;2023-02-12T05:45:21;101125.56;;;-0.86;68.51
18819;BME280;9537;45.594;9.294;2023-02-12T05:46:27;101132.47;;;-0.85;68.63
18819;BME280;9537;45.594;9.294;2023-02-12T05:47:28;101132.41;;;-0.84;68.95
18819;BME280;9537;45.594;9.294;2023-02-12T05:48:31;101129.66;;;-0.81;68.56